createdAt,value
2017-04-28T00:00:44.449Z,19.54
2017-04-28T00:01:45.739Z,19.52
2017-04-28T00:02:47.028Z,19.54
2017-04-28T00:03:48.318Z,19.52
2017-04-28T00:04:49.605Z,19.55
2017-04-28T00:05:50.893Z,19.45
2017-04-28T00:06:52.180Z,19.54
2017-04-28T00:07:53.471Z,19.48
2017-04-28T00:08:54.759Z,19.58
2017-04-28T00:09:56.046Z,19.44
2017-04-28T00:10:57.335Z,19.45
2017-04-28T00:11:58.625Z,19.45
2017-04-28T00:12:59.916Z,19.45
2017-04-28T00:14:01.206Z,19.47
2017-04-28T00:15:02.503Z,19.45
2017-04-28T00:16:03.792Z,19.44
2017-04-28T00:17:05.079Z,19.41
2017-04-28T00:18:06.366Z,19.44
2017-04-28T00:19:07.653Z,19.45
2017-04-28T00:20:08.940Z,19.44
2017-04-28T00:21:10.230Z,19.37
2017-04-28T00:22:11.518Z,19.39
2017-04-28T00:23:12.809Z,19.47
2017-04-28T00:24:14.098Z,19.41
2017-04-28T00:25:15.385Z,19.45
2017-04-28T00:26:16.678Z,19.45
2017-04-28T00:27:17.964Z,19.37
2017-04-28T00:28:19.253Z,19.36
2017-04-28T00:29:20.544Z,19.48
2017-04-28T00:30:21.831Z,19.34
2017-04-28T00:31:23.125Z,19.45
2017-04-28T00:32:24.412Z,19.36
2017-04-28T00:33:25.696Z,19.40
2017-04-28T00:34:26.988Z,19.34
2017-04-28T00:35:28.279Z,19.34
2017-04-28T00:36:29.567Z,19.31
2017-04-28T00:37:30.857Z,19.33
2017-04-28T00:38:32.144Z,19.34
2017-04-28T00:39:33.433Z,19.31
2017-04-28T00:40:34.719Z,19.36
2017-04-28T00:41:36.007Z,19.37
2017-04-28T00:42:37.296Z,19.36
2017-04-28T00:43:38.583Z,19.31
2017-04-28T00:44:39.869Z,19.29
2017-04-28T00:45:41.157Z,19.31
2017-04-28T00:46:42.445Z,19.26
2017-04-28T00:47:43.742Z,19.26
2017-04-28T00:48:45.034Z,19.24
2017-04-28T00:49:46.321Z,19.27
2017-04-28T00:50:47.609Z,19.24
2017-04-28T00:51:48.899Z,19.29
2017-04-28T00:52:50.185Z,19.26
2017-04-28T00:53:51.471Z,19.30
2017-04-28T00:54:52.764Z,19.21
2017-04-28T00:55:54.059Z,19.22
2017-04-28T00:56:55.344Z,19.22
2017-04-28T00:57:56.633Z,19.26
2017-04-28T00:58:57.920Z,19.16
2017-04-28T00:59:59.208Z,19.14
2017-04-28T01:01:00.495Z,19.26
2017-04-28T01:02:01.784Z,19.15
2017-04-28T01:03:03.074Z,19.21
2017-04-28T01:04:04.361Z,19.26
2017-04-28T01:05:05.649Z,19.19
2017-04-28T01:06:06.942Z,19.15
2017-04-28T01:07:08.232Z,19.12
2017-04-28T01:08:09.519Z,19.27
2017-04-28T01:09:10.807Z,19.19
2017-04-28T01:10:12.099Z,19.21
2017-04-28T01:11:13.388Z,19.19
2017-04-28T01:12:14.677Z,19.15
2017-04-28T01:13:15.963Z,19.14
2017-04-28T01:14:17.250Z,19.12
2017-04-28T01:15:18.538Z,19.11
2017-04-28T01:16:19.825Z,19.12
2017-04-28T01:17:21.113Z,19.14
2017-04-28T01:18:22.400Z,19.15
2017-04-28T01:19:23.690Z,19.12
2017-04-28T01:20:24.975Z,19.09
2017-04-28T01:21:26.276Z,19.14
2017-04-28T01:22:27.561Z,19.08
2017-04-28T01:23:28.851Z,19.11
2017-04-28T01:24:30.136Z,19.08
2017-04-28T01:25:31.423Z,19.12
2017-04-28T01:26:32.712Z,19.08
2017-04-28T01:27:34.001Z,19.09
2017-04-28T01:28:35.291Z,19.08
2017-04-28T01:29:36.577Z,19.04
2017-04-28T01:30:37.866Z,18.99
2017-04-28T01:31:39.152Z,19.02
2017-04-28T01:32:40.443Z,18.99
2017-04-28T01:33:41.696Z,19.08
2017-04-28T01:34:43.007Z,19.00
2017-04-28T01:35:44.268Z,19.02
2017-04-28T01:36:45.554Z,19.07
2017-04-28T01:37:46.843Z,19.02
2017-04-28T01:38:48.135Z,19.07
2017-04-28T01:39:49.423Z,18.99
2017-04-28T01:40:50.709Z,19.08
2017-04-28T01:41:52.002Z,18.99
2017-04-28T01:42:53.286Z,18.96
2017-04-28T01:43:54.573Z,19.04
2017-04-28T01:44:55.864Z,19.04
2017-04-28T01:45:57.152Z,18.99
2017-04-28T01:46:58.442Z,18.98
2017-04-28T01:47:59.734Z,18.89
2017-04-28T01:49:01.022Z,18.88
2017-04-28T01:50:02.313Z,18.90
2017-04-28T01:51:03.600Z,18.86
2017-04-28T01:52:04.889Z,18.88
2017-04-28T01:53:06.176Z,18.86
2017-04-28T01:54:07.464Z,18.89
2017-04-28T01:55:08.752Z,18.95
2017-04-28T01:56:10.042Z,18.92
2017-04-28T01:57:11.329Z,18.89
2017-04-28T01:58:12.621Z,18.89
2017-04-28T01:59:13.908Z,18.84
2017-04-28T02:00:15.197Z,18.90
2017-04-28T02:01:16.483Z,18.92
2017-04-28T02:02:17.772Z,18.81
2017-04-28T02:03:19.060Z,18.86
2017-04-28T02:04:20.352Z,18.93
2017-04-28T02:05:21.641Z,18.88
2017-04-28T02:06:22.929Z,18.86
2017-04-28T02:07:24.218Z,18.83
2017-04-28T02:08:25.506Z,18.86
2017-04-28T02:09:26.795Z,18.86
2017-04-28T02:10:28.084Z,18.95
2017-04-28T02:11:29.374Z,18.78
2017-04-28T02:12:30.664Z,18.78
2017-04-28T02:13:31.953Z,18.88
2017-04-28T02:14:33.241Z,18.88
2017-04-28T02:15:34.533Z,18.78
2017-04-28T02:16:35.818Z,18.88
2017-04-28T02:17:37.105Z,18.77
2017-04-28T02:18:38.392Z,18.84
2017-04-28T02:19:39.682Z,18.78
2017-04-28T02:20:40.967Z,18.75
2017-04-28T02:21:42.257Z,18.83
2017-04-28T02:22:43.544Z,18.78
2017-04-28T02:23:44.833Z,18.75
2017-04-28T02:24:46.122Z,18.83
2017-04-28T02:25:47.411Z,18.75
2017-04-28T02:26:48.696Z,18.77
2017-04-28T02:27:49.985Z,18.75
2017-04-28T02:28:51.275Z,18.81
2017-04-28T02:29:52.562Z,18.84
2017-04-28T02:30:53.851Z,18.75
2017-04-28T02:31:55.137Z,18.74
2017-04-28T02:32:56.425Z,18.81
2017-04-28T02:33:57.712Z,18.71
2017-04-28T02:34:59.001Z,18.77
2017-04-28T02:36:00.287Z,18.70
2017-04-28T02:37:01.577Z,18.77
2017-04-28T02:38:02.864Z,18.75
2017-04-28T02:39:04.159Z,18.68
2017-04-28T02:40:05.449Z,18.73
2017-04-28T02:41:06.738Z,18.68
2017-04-28T02:42:08.023Z,18.63
2017-04-28T02:43:09.313Z,18.77
2017-04-28T02:44:10.602Z,18.66
2017-04-28T02:45:11.890Z,18.68
2017-04-28T02:46:13.175Z,18.68
2017-04-28T02:47:14.463Z,18.68
2017-04-28T02:48:15.752Z,18.66
2017-04-28T02:49:17.040Z,18.70
2017-04-28T02:50:18.330Z,18.65
2017-04-28T02:51:19.618Z,18.71
2017-04-28T02:52:20.908Z,18.62
2017-04-28T02:53:22.198Z,18.60
2017-04-28T02:54:23.486Z,18.62
2017-04-28T02:55:24.772Z,18.65
2017-04-28T02:56:26.062Z,18.66
2017-04-28T02:57:27.350Z,18.70
2017-04-28T02:58:28.639Z,18.71
2017-04-28T02:59:29.923Z,18.70
2017-04-28T03:00:31.216Z,18.63
2017-04-28T03:01:32.504Z,18.70
2017-04-28T03:02:33.792Z,18.66
2017-04-28T03:03:35.083Z,18.66
2017-04-28T03:04:36.370Z,18.70
2017-04-28T03:05:37.655Z,18.65
2017-04-28T03:06:38.947Z,18.63
2017-04-28T03:07:40.238Z,18.71
2017-04-28T03:08:41.526Z,18.68
2017-04-28T03:09:42.815Z,18.63
2017-04-28T03:10:44.105Z,18.59
2017-04-28T03:11:45.394Z,18.63
2017-04-28T03:12:46.684Z,18.63
2017-04-28T03:13:47.974Z,18.59
2017-04-28T03:14:49.258Z,18.62
2017-04-28T03:15:50.547Z,18.71
2017-04-28T03:16:51.831Z,18.71
2017-04-28T03:17:53.123Z,18.66
2017-04-28T03:18:54.409Z,18.65
2017-04-28T03:19:55.698Z,18.70
2017-04-28T03:20:56.988Z,18.60
2017-04-28T03:21:58.276Z,18.63
2017-04-28T03:22:59.564Z,18.62
2017-04-28T03:24:00.848Z,18.60
2017-04-28T03:25:02.134Z,18.62
2017-04-28T03:26:03.424Z,18.62
2017-04-28T03:27:04.712Z,18.62
2017-04-28T03:28:06.001Z,18.62
2017-04-28T03:29:07.289Z,18.62
2017-04-28T03:30:08.573Z,18.60
2017-04-28T03:31:09.863Z,18.59
2017-04-28T03:32:11.151Z,18.58
2017-04-28T03:33:12.459Z,18.56
2017-04-28T03:34:13.744Z,18.55
2017-04-28T03:35:15.032Z,18.55
2017-04-28T03:36:16.321Z,18.56
2017-04-28T03:37:17.614Z,18.55
2017-04-28T03:38:18.898Z,18.60
2017-04-28T03:39:20.186Z,18.56
2017-04-28T03:40:21.484Z,18.55
2017-04-28T03:41:22.773Z,18.56
2017-04-28T03:42:24.059Z,18.52
2017-04-28T03:43:25.352Z,18.53
2017-04-28T03:44:26.639Z,18.50
2017-04-28T03:45:27.923Z,18.53
2017-04-28T03:46:29.208Z,18.56
2017-04-28T03:47:30.496Z,18.56
2017-04-28T03:48:31.800Z,18.63
2017-04-28T03:49:33.086Z,18.71
2017-04-28T03:50:34.374Z,18.66
2017-04-28T03:51:35.663Z,18.65
2017-04-28T03:52:36.950Z,18.75
2017-04-28T03:53:38.241Z,18.78
2017-04-28T03:54:39.526Z,18.78
2017-04-28T03:55:40.813Z,18.83
2017-04-28T03:56:42.102Z,18.98
2017-04-28T03:57:43.389Z,18.99
2017-04-28T03:58:44.672Z,19.07
2017-04-28T03:59:45.962Z,19.12
2017-04-28T04:00:47.250Z,19.19
2017-04-28T04:01:48.543Z,19.18
2017-04-28T04:02:49.828Z,19.24
2017-04-28T04:03:51.125Z,19.36
2017-04-28T04:04:52.413Z,19.36
2017-04-28T04:05:53.701Z,19.41
2017-04-28T04:06:54.989Z,19.47
2017-04-28T04:07:56.277Z,19.47
2017-04-28T04:08:57.565Z,19.41
2017-04-28T04:09:58.856Z,19.44
2017-04-28T04:11:00.143Z,19.54
2017-04-28T04:12:01.430Z,19.55
2017-04-28T04:13:02.719Z,19.62
2017-04-28T04:14:04.014Z,19.56
2017-04-28T04:15:05.296Z,19.58
2017-04-28T04:16:06.588Z,19.67
2017-04-28T04:17:07.881Z,19.73
2017-04-28T04:18:09.173Z,19.85
2017-04-28T04:19:10.461Z,19.79
2017-04-28T04:20:11.754Z,19.77
2017-04-28T04:21:13.045Z,19.85
2017-04-28T04:22:14.337Z,19.85
2017-04-28T04:23:15.623Z,19.86
2017-04-28T04:24:16.915Z,19.91
2017-04-28T04:25:18.206Z,19.92
2017-04-28T04:26:19.498Z,19.96
2017-04-28T04:27:20.786Z,20.03
2017-04-28T04:28:22.087Z,20.13
2017-04-28T04:29:23.377Z,20.29
2017-04-28T04:30:25.412Z,20.21
2017-04-28T04:31:26.749Z,20.41
2017-04-28T04:32:28.037Z,20.43
2017-04-28T04:33:29.354Z,20.62
2017-04-28T04:34:30.679Z,20.63
2017-04-28T04:35:31.955Z,20.82
2017-04-28T04:36:34.213Z,21.02
2017-04-28T04:37:35.819Z,21.07
2017-04-28T04:38:37.134Z,21.35
2017-04-28T04:39:38.480Z,21.37
2017-04-28T04:40:39.769Z,21.45
2017-04-28T04:41:41.065Z,21.52
2017-04-28T04:42:42.356Z,21.58
2017-04-28T04:43:43.650Z,21.61
2017-04-28T04:44:44.944Z,21.66
2017-04-28T04:45:46.248Z,21.80
2017-04-28T04:46:47.658Z,21.75
2017-04-28T04:47:48.956Z,21.91
2017-04-28T04:48:50.246Z,21.87
2017-04-28T04:49:51.540Z,21.91
2017-04-28T04:50:52.834Z,21.76
2017-04-28T04:51:54.123Z,22.00
2017-04-28T04:52:55.414Z,21.95
2017-04-28T04:53:56.705Z,21.98
2017-04-28T04:54:57.998Z,21.99
2017-04-28T04:55:59.378Z,21.92
2017-04-28T04:57:00.674Z,22.28
2017-04-28T04:58:01.963Z,22.30
2017-04-28T04:59:03.256Z,22.70
2017-04-28T05:00:04.551Z,22.98
2017-04-28T05:01:05.839Z,22.55
2017-04-28T05:02:07.138Z,22.04
2017-04-28T05:03:08.424Z,21.89
2017-04-28T05:04:09.724Z,21.77
2017-04-28T05:05:11.541Z,21.55
2017-04-28T05:06:12.835Z,21.52
2017-04-28T05:07:14.132Z,21.48
2017-04-28T05:08:15.419Z,21.50
2017-04-28T05:09:16.726Z,21.37
2017-04-28T05:10:18.019Z,21.36
2017-04-28T05:11:19.311Z,21.39
2017-04-28T05:12:20.603Z,21.43
2017-04-28T05:13:21.894Z,21.48
2017-04-28T05:14:23.185Z,21.54
2017-04-28T05:15:24.477Z,21.42
2017-04-28T05:16:25.770Z,21.39
2017-04-28T05:17:27.063Z,21.33
2017-04-28T05:18:28.396Z,21.36
2017-04-28T05:19:29.688Z,21.33
2017-04-28T05:20:30.984Z,21.29
2017-04-28T05:21:32.278Z,21.32
2017-04-28T05:22:33.569Z,21.24
2017-04-28T05:23:34.863Z,21.18
2017-04-28T05:24:36.159Z,21.24
2017-04-28T05:25:37.453Z,21.33
2017-04-28T05:26:38.749Z,21.27
2017-04-28T05:27:40.043Z,21.25
2017-04-28T05:28:41.338Z,20.88
2017-04-28T05:29:42.635Z,20.85
2017-04-28T05:30:43.926Z,20.77
2017-04-28T05:31:45.218Z,20.72
2017-04-28T05:32:46.508Z,20.75
2017-04-28T05:33:47.801Z,20.74
2017-04-28T05:34:49.094Z,20.80
2017-04-28T05:35:50.387Z,20.72
2017-04-28T05:36:51.680Z,20.72
2017-04-28T05:37:52.978Z,20.72
2017-04-28T05:38:54.273Z,20.70
2017-04-28T05:39:55.559Z,20.70
2017-04-28T05:40:56.851Z,20.72
2017-04-28T05:41:58.144Z,20.78
2017-04-28T05:42:59.435Z,20.74
2017-04-28T05:44:00.729Z,20.70
2017-04-28T05:45:02.022Z,20.77
2017-04-28T05:46:03.313Z,20.62
2017-04-28T05:47:04.603Z,20.70
2017-04-28T05:48:05.894Z,20.60
2017-04-28T05:49:07.185Z,20.66
2017-04-28T05:50:08.478Z,20.62
2017-04-28T05:51:09.772Z,20.65
2017-04-28T05:52:11.064Z,20.56
2017-04-28T05:53:12.357Z,20.56
2017-04-28T05:54:13.653Z,20.55
2017-04-28T05:55:14.949Z,20.52
2017-04-28T05:56:16.235Z,20.47
2017-04-28T05:57:17.523Z,20.51
2017-04-28T05:58:18.815Z,20.43
2017-04-28T05:59:20.106Z,20.43
2017-04-28T06:00:21.402Z,20.44
2017-04-28T06:01:22.691Z,20.40
2017-04-28T06:02:23.984Z,20.26
2017-04-28T06:03:25.278Z,20.21
2017-04-28T06:04:26.568Z,20.22
2017-04-28T06:05:27.860Z,20.19
2017-04-28T06:06:29.154Z,20.16
2017-04-28T06:07:30.444Z,20.19
2017-04-28T06:08:31.736Z,20.22
2017-04-28T06:09:33.030Z,20.25
2017-04-28T06:10:34.320Z,20.21
2017-04-28T06:11:35.612Z,20.22
2017-04-28T06:12:36.903Z,20.18
2017-04-28T06:13:38.197Z,20.18
2017-04-28T06:14:39.486Z,20.18
2017-04-28T06:15:40.778Z,20.19
2017-04-28T06:16:42.070Z,20.22
2017-04-28T06:17:43.359Z,20.19
2017-04-28T06:18:44.650Z,20.19
2017-04-28T06:19:45.943Z,20.16
2017-04-28T06:20:47.237Z,20.19
2017-04-28T06:21:48.529Z,20.24
2017-04-28T06:22:49.821Z,20.18
2017-04-28T06:23:51.114Z,20.19
2017-04-28T06:24:52.406Z,20.18
2017-04-28T06:25:53.698Z,20.21
2017-04-28T06:26:54.990Z,20.21
2017-04-28T06:27:56.281Z,20.26
2017-04-28T06:28:57.573Z,20.16
2017-04-28T06:29:58.864Z,20.16
2017-04-28T06:31:00.158Z,20.16
2017-04-28T06:32:01.448Z,20.19
2017-04-28T06:33:02.741Z,20.16
2017-04-28T06:34:04.031Z,20.21
2017-04-28T06:35:05.320Z,20.19
2017-04-28T06:36:06.612Z,20.19
2017-04-28T06:37:07.903Z,20.18
2017-04-28T06:38:09.196Z,20.18
2017-04-28T06:39:10.486Z,20.19
2017-04-28T06:40:11.779Z,20.06
2017-04-28T06:41:13.071Z,20.19
2017-04-28T06:42:14.363Z,20.18
2017-04-28T06:43:15.655Z,20.07
2017-04-28T06:44:16.946Z,20.06
2017-04-28T06:45:18.236Z,20.14
2017-04-28T06:46:19.527Z,20.07
2017-04-28T06:47:20.825Z,20.07
2017-04-28T06:48:22.112Z,20.14
2017-04-28T06:49:23.405Z,20.06
2017-04-28T06:50:24.698Z,20.11
2017-04-28T06:51:25.989Z,20.11
2017-04-28T06:52:27.280Z,20.09
2017-04-28T06:53:28.570Z,20.07
2017-04-28T06:54:29.860Z,20.09
2017-04-28T06:55:31.157Z,20.14
2017-04-28T06:56:32.445Z,20.07
2017-04-28T06:57:33.736Z,20.11
2017-04-28T06:58:35.028Z,20.07
2017-04-28T06:59:36.322Z,20.06
2017-04-28T07:00:37.611Z,20.07
2017-04-28T07:01:38.902Z,20.07
2017-04-28T07:02:40.196Z,20.13
2017-04-28T07:03:41.488Z,20.06
2017-04-28T07:04:42.779Z,20.06
2017-04-28T07:05:44.073Z,20.09
2017-04-28T07:06:45.366Z,20.14
2017-04-28T07:07:46.656Z,20.09
2017-04-28T07:08:47.947Z,20.11
2017-04-28T07:09:49.239Z,20.04
2017-04-28T07:10:50.532Z,20.06
2017-04-28T07:11:51.823Z,20.07
2017-04-28T07:12:53.114Z,20.09
2017-04-28T07:13:54.407Z,20.11
2017-04-28T07:14:55.698Z,20.02
2017-04-28T07:15:56.994Z,20.03
2017-04-28T07:16:58.285Z,20.02
2017-04-28T07:17:59.569Z,19.95
2017-04-28T07:19:00.864Z,19.99
2017-04-28T07:20:02.158Z,19.95
2017-04-28T07:21:03.445Z,20.00
2017-04-28T07:22:04.736Z,19.96
2017-04-28T07:23:06.032Z,19.94
2017-04-28T07:24:07.321Z,19.96
2017-04-28T07:25:08.615Z,19.95
2017-04-28T07:26:09.907Z,20.03
2017-04-28T07:27:11.198Z,20.03
2017-04-28T07:28:12.489Z,19.96
2017-04-28T07:29:13.781Z,20.00
2017-04-28T07:30:15.075Z,20.00
2017-04-28T07:31:16.364Z,19.99
2017-04-28T07:32:17.654Z,20.02
2017-04-28T07:33:18.947Z,20.04
2017-04-28T07:34:20.238Z,20.07
2017-04-28T07:35:21.533Z,20.04
2017-04-28T07:36:22.824Z,19.95
2017-04-28T07:37:24.115Z,20.03
2017-04-28T07:38:25.407Z,20.07
2017-04-28T07:39:26.700Z,20.09
2017-04-28T07:40:27.987Z,20.02
2017-04-28T07:41:29.279Z,20.06
2017-04-28T07:42:30.574Z,20.03
2017-04-28T07:43:31.870Z,20.06
2017-04-28T07:44:33.159Z,20.02
2017-04-28T07:45:34.449Z,20.09
2017-04-28T07:46:35.742Z,20.02
2017-04-28T07:47:37.034Z,20.03
2017-04-28T07:48:38.326Z,20.00
2017-04-28T07:49:39.616Z,20.00
2017-04-28T07:50:40.907Z,19.94
2017-04-28T07:51:42.200Z,19.95
2017-04-28T07:52:43.489Z,19.99
2017-04-28T07:53:44.781Z,20.06
2017-04-28T07:54:46.069Z,19.96
2017-04-28T07:55:47.362Z,19.96
2017-04-28T07:56:48.653Z,19.99
2017-04-28T07:57:49.945Z,19.91
2017-04-28T07:58:51.238Z,19.99
2017-04-28T07:59:52.534Z,19.88
2017-04-28T08:00:53.819Z,19.94
2017-04-28T08:01:55.112Z,19.88
2017-04-28T08:02:56.408Z,19.95
2017-04-28T08:03:57.696Z,19.84
2017-04-28T08:04:58.991Z,19.92
2017-04-28T08:06:00.284Z,19.86
2017-04-28T08:07:01.577Z,19.95
2017-04-28T08:08:02.867Z,19.94
2017-04-28T08:09:04.157Z,19.84
2017-04-28T08:10:05.450Z,19.96
2017-04-28T08:11:06.738Z,19.89
2017-04-28T08:12:08.030Z,19.88
2017-04-28T08:13:09.322Z,19.91
2017-04-28T08:14:10.615Z,19.91
2017-04-28T08:15:11.908Z,19.95
2017-04-28T08:16:13.200Z,19.89
2017-04-28T08:17:14.492Z,19.99
2017-04-28T08:18:15.785Z,19.99
2017-04-28T08:19:17.080Z,20.03
2017-04-28T08:20:18.373Z,20.06
2017-04-28T08:21:19.668Z,19.95
2017-04-28T08:22:20.961Z,20.07
2017-04-28T08:23:22.259Z,20.02
2017-04-28T08:24:23.550Z,20.00
2017-04-28T08:25:24.844Z,20.04
2017-04-28T08:26:26.136Z,20.03
2017-04-28T08:27:27.429Z,20.09
2017-04-28T08:28:28.720Z,20.10
2017-04-28T08:29:30.069Z,20.07
2017-04-28T08:30:31.363Z,20.03
2017-04-28T08:31:32.690Z,20.04
2017-04-28T08:32:33.952Z,20.07
2017-04-28T08:33:35.245Z,20.07
2017-04-28T08:34:36.538Z,20.06
2017-04-28T08:35:37.836Z,20.09
2017-04-28T08:36:39.124Z,20.10
2017-04-28T08:37:40.421Z,20.11
2017-04-28T08:38:41.716Z,20.16
2017-04-28T08:39:43.003Z,20.14
2017-04-28T08:40:44.302Z,20.18
2017-04-28T08:41:45.602Z,20.18
2017-04-28T08:42:46.891Z,20.16
2017-04-28T08:43:48.182Z,20.16
2017-04-28T08:44:49.474Z,20.21
2017-04-28T08:45:50.766Z,20.22
2017-04-28T08:46:52.059Z,20.25
2017-04-28T08:47:53.353Z,20.26
2017-04-28T08:48:54.646Z,20.18
2017-04-28T08:49:55.938Z,20.28
2017-04-28T08:50:57.231Z,20.21
2017-04-28T08:51:58.525Z,20.36
2017-04-28T08:52:59.822Z,20.28
2017-04-28T08:54:01.164Z,20.29
2017-04-28T08:55:02.459Z,20.25
2017-04-28T08:56:03.757Z,20.29
2017-04-28T08:57:05.055Z,20.25
2017-04-28T08:58:06.344Z,20.29
2017-04-28T08:59:07.642Z,20.37
2017-04-28T09:00:08.932Z,20.31
2017-04-28T09:01:10.229Z,20.31
2017-04-28T09:02:11.523Z,20.36
2017-04-28T09:03:12.819Z,20.39
2017-04-28T09:04:14.110Z,20.32
2017-04-28T09:05:15.401Z,20.39
2017-04-28T09:06:16.711Z,20.34
2017-04-28T09:07:18.027Z,20.26
2017-04-28T09:08:19.319Z,20.39
2017-04-28T09:09:20.616Z,20.40
2017-04-28T09:10:21.910Z,20.39
2017-04-28T09:11:23.205Z,20.47
2017-04-28T09:12:24.496Z,20.48
2017-04-28T09:13:25.799Z,20.52
2017-04-28T09:14:27.102Z,20.52
2017-04-28T09:15:28.397Z,20.55
2017-04-28T09:16:29.697Z,20.55
2017-04-28T09:17:30.986Z,20.51
2017-04-28T09:18:32.280Z,20.60
2017-04-28T09:19:33.588Z,20.52
2017-04-28T09:20:34.886Z,20.62
2017-04-28T09:21:36.216Z,20.55
2017-04-28T09:22:37.507Z,20.56
2017-04-28T09:23:38.803Z,20.66
2017-04-28T09:24:40.095Z,20.67
2017-04-28T09:25:41.421Z,20.66
2017-04-28T09:26:42.687Z,20.67
2017-04-28T09:27:43.976Z,20.75
2017-04-28T09:28:45.273Z,20.81
2017-04-28T09:29:46.564Z,20.90
2017-04-28T09:30:47.857Z,20.87
2017-04-28T09:31:49.152Z,20.87
2017-04-28T09:32:50.447Z,20.87
2017-04-28T09:33:51.740Z,20.92
2017-04-28T09:34:53.037Z,20.88
2017-04-28T09:35:54.333Z,20.88
2017-04-28T09:36:55.647Z,20.80
2017-04-28T09:37:56.942Z,20.80
2017-04-28T09:38:58.245Z,20.82
2017-04-28T09:39:59.536Z,20.72
2017-04-28T09:41:00.833Z,20.72
2017-04-28T09:42:02.128Z,20.66
2017-04-28T09:43:03.418Z,20.72
2017-04-28T09:44:04.713Z,20.62
2017-04-28T09:45:06.008Z,20.62
2017-04-28T09:46:07.300Z,20.66
2017-04-28T09:47:08.597Z,20.63
2017-04-28T09:48:09.890Z,20.59
2017-04-28T09:49:11.246Z,20.56
2017-04-28T09:50:12.541Z,20.59
2017-04-28T09:51:13.841Z,20.59
2017-04-28T09:52:15.136Z,20.59
2017-04-28T09:53:16.426Z,20.58
2017-04-28T09:54:17.720Z,20.52
2017-04-28T09:55:19.013Z,20.52
2017-04-28T09:56:20.304Z,20.60
2017-04-28T09:57:21.599Z,20.63
2017-04-28T09:58:22.894Z,20.56
2017-04-28T09:59:24.186Z,20.65
2017-04-28T10:00:25.480Z,20.69
2017-04-28T10:01:26.776Z,20.69
2017-04-28T10:02:28.071Z,20.72
2017-04-28T10:03:29.365Z,20.75
2017-04-28T10:04:30.660Z,20.75
2017-04-28T10:05:31.957Z,20.70
2017-04-28T10:06:33.251Z,20.74
2017-04-28T10:07:34.546Z,20.72
2017-04-28T10:08:35.841Z,20.70
2017-04-28T10:09:37.137Z,20.66
2017-04-28T10:10:38.431Z,20.74
2017-04-28T10:11:39.729Z,20.66
2017-04-28T10:12:41.021Z,20.59
2017-04-28T10:13:42.315Z,20.63
2017-04-28T10:14:43.610Z,20.60
2017-04-28T10:15:44.905Z,20.60
2017-04-28T10:16:46.228Z,20.62
2017-04-28T10:17:47.491Z,20.62
2017-04-28T10:18:48.790Z,20.66
2017-04-28T10:19:50.100Z,20.58
2017-04-28T10:20:51.395Z,20.52
2017-04-28T10:21:52.690Z,20.56
2017-04-28T10:22:53.986Z,20.51
2017-04-28T10:23:55.281Z,20.51
2017-04-28T10:24:56.575Z,20.58
2017-04-28T10:25:57.873Z,20.52
2017-04-28T10:26:59.167Z,20.58
2017-04-28T10:28:00.460Z,20.58
2017-04-28T10:29:01.754Z,20.63
2017-04-28T10:30:03.048Z,20.62
2017-04-28T10:31:04.341Z,20.58
2017-04-28T10:32:05.643Z,20.66
2017-04-28T10:33:06.937Z,20.58
2017-04-28T10:34:08.230Z,20.60
2017-04-28T10:35:09.532Z,20.59
2017-04-28T10:36:10.820Z,20.62
2017-04-28T10:37:12.112Z,20.63
2017-04-28T10:38:13.407Z,20.51
2017-04-28T10:39:14.741Z,20.52
2017-04-28T10:40:16.044Z,20.51
2017-04-28T10:41:17.322Z,20.41
2017-04-28T10:42:18.619Z,20.47
2017-04-28T10:43:19.939Z,20.40
2017-04-28T10:44:21.234Z,20.37
2017-04-28T10:45:22.528Z,20.44
2017-04-28T10:46:23.824Z,20.41
2017-04-28T10:47:25.116Z,20.40
2017-04-28T10:48:26.411Z,20.39
2017-04-28T10:49:27.704Z,20.40
2017-04-28T10:50:29.006Z,20.40
2017-04-28T10:51:30.300Z,20.40
2017-04-28T10:52:31.624Z,20.43
2017-04-28T10:53:32.886Z,20.41
2017-04-28T10:54:34.182Z,20.40
2017-04-28T10:55:35.479Z,20.41
2017-04-28T10:56:36.769Z,20.44
2017-04-28T10:57:38.062Z,20.39
2017-04-28T10:58:39.365Z,20.48
2017-04-28T10:59:40.659Z,20.43
2017-04-28T11:00:41.953Z,20.37
2017-04-28T11:01:43.249Z,20.32
2017-04-28T11:02:44.546Z,20.32
2017-04-28T11:03:45.840Z,20.26
2017-04-28T11:04:47.132Z,20.19
2017-04-28T11:05:48.424Z,20.25
2017-04-28T11:06:49.718Z,20.24
2017-04-28T11:07:51.010Z,20.22
2017-04-28T11:08:52.306Z,20.18
2017-04-28T11:09:53.611Z,20.19
2017-04-28T11:10:54.904Z,20.28
2017-04-28T11:11:56.196Z,20.24
2017-04-28T11:12:57.488Z,20.28
2017-04-28T11:13:58.778Z,20.28
2017-04-28T11:15:00.070Z,20.34
2017-04-28T11:16:01.364Z,20.40
2017-04-28T11:17:02.658Z,20.41
2017-04-28T11:18:03.952Z,20.50
2017-04-28T11:19:05.243Z,20.44
2017-04-28T11:20:06.535Z,20.50
2017-04-28T11:21:07.832Z,20.58
2017-04-28T11:22:09.120Z,20.58
2017-04-28T11:23:10.412Z,20.72
2017-04-28T11:24:11.705Z,20.74
2017-04-28T11:25:13.005Z,20.80
2017-04-28T11:26:14.299Z,20.88
2017-04-28T11:27:15.592Z,20.96
2017-04-28T11:28:16.884Z,21.05
2017-04-28T11:29:18.177Z,21.20
2017-04-28T11:30:19.471Z,21.21
2017-04-28T11:31:20.767Z,21.30
2017-04-28T11:32:22.061Z,21.37
2017-04-28T11:33:23.353Z,21.36
2017-04-28T11:34:24.652Z,21.42
2017-04-28T11:35:25.953Z,21.42
2017-04-28T11:36:27.249Z,21.40
2017-04-28T11:37:28.543Z,21.48
2017-04-28T11:38:29.838Z,21.39
2017-04-28T11:39:31.133Z,21.30
2017-04-28T11:40:32.428Z,21.33
2017-04-28T11:41:33.718Z,21.30
2017-04-28T11:42:35.010Z,21.36
2017-04-28T11:43:36.300Z,21.35
2017-04-28T11:44:37.611Z,21.32
2017-04-28T11:45:38.907Z,21.33
2017-04-28T11:46:40.203Z,21.27
2017-04-28T11:47:41.495Z,21.37
2017-04-28T11:48:42.788Z,21.39
2017-04-28T11:49:44.084Z,21.48
2017-04-28T11:50:45.377Z,21.43
2017-04-28T11:51:46.671Z,21.42
2017-04-28T11:52:47.965Z,21.46
2017-04-28T11:53:49.258Z,21.54
2017-04-28T11:54:50.556Z,21.57
2017-04-28T11:55:51.850Z,21.54
2017-04-28T11:56:53.148Z,21.66
2017-04-28T11:57:54.442Z,21.69
2017-04-28T11:58:55.749Z,21.77
2017-04-28T11:59:57.043Z,21.80
2017-04-28T12:00:58.337Z,21.85
2017-04-28T12:01:59.645Z,21.92
2017-04-28T12:03:00.945Z,21.98
2017-04-28T12:04:02.239Z,22.06
2017-04-28T12:05:03.527Z,22.11
2017-04-28T12:06:04.826Z,22.11
2017-04-28T12:07:06.120Z,22.18
2017-04-28T12:08:07.415Z,22.13
2017-04-28T12:09:08.849Z,22.22
2017-04-28T12:10:10.127Z,22.29
2017-04-28T12:11:14.832Z,22.32
2017-04-28T12:12:16.448Z,22.30
2017-04-28T12:13:17.797Z,22.25
2017-04-28T12:14:19.565Z,22.29
2017-04-28T12:15:20.860Z,22.35
2017-04-28T12:16:22.489Z,22.41
2017-04-28T12:17:23.787Z,22.45
2017-04-28T12:18:25.082Z,22.44
2017-04-28T12:19:26.377Z,22.43
2017-04-28T12:20:27.671Z,22.41
2017-04-28T12:21:28.970Z,22.47
2017-04-28T12:22:30.261Z,22.48
2017-04-28T12:23:31.554Z,22.45
2017-04-28T12:24:32.849Z,22.45
2017-04-28T12:25:34.150Z,22.50
2017-04-28T12:26:35.446Z,22.45
2017-04-28T12:27:36.743Z,22.45
2017-04-28T12:28:38.080Z,22.44
2017-04-28T12:29:39.378Z,22.47
2017-04-28T12:30:40.671Z,22.44
2017-04-28T12:31:42.225Z,22.47
2017-04-28T12:32:43.965Z,22.47
2017-04-28T12:33:45.213Z,22.53
2017-04-28T12:34:46.507Z,22.41
2017-04-28T12:35:48.817Z,22.50
2017-04-28T12:36:51.208Z,22.53
2017-04-28T12:37:52.589Z,22.60
2017-04-28T12:38:53.892Z,22.57
2017-04-28T12:39:55.188Z,22.59
2017-04-28T12:40:57.645Z,22.54
2017-04-28T12:42:01.735Z,22.59
2017-04-28T12:43:06.386Z,22.55
2017-04-28T12:44:09.918Z,22.62
2017-04-28T12:45:11.443Z,22.70
2017-04-28T12:46:12.969Z,22.66
2017-04-28T12:47:17.716Z,22.62
2017-04-28T12:48:20.429Z,22.68
2017-04-28T12:49:21.991Z,22.69
2017-04-28T12:50:23.289Z,22.65
2017-04-28T12:51:24.640Z,22.72
2017-04-28T12:52:26.578Z,22.68
2017-04-28T12:53:27.874Z,22.73
2017-04-28T12:54:29.169Z,22.70
2017-04-28T12:55:30.466Z,22.73
2017-04-28T12:56:31.937Z,22.68
2017-04-28T12:57:33.233Z,22.70
2017-04-28T12:58:34.532Z,22.75
2017-04-28T12:59:35.871Z,22.78
2017-04-28T13:00:37.161Z,22.75
2017-04-28T13:01:38.463Z,22.80
2017-04-28T13:02:39.758Z,22.80
2017-04-28T13:03:44.921Z,22.78
2017-04-28T13:04:46.166Z,22.76
2017-04-28T13:05:47.759Z,22.73
2017-04-28T13:06:49.056Z,22.70
2017-04-28T13:07:50.353Z,22.75
2017-04-28T13:08:51.650Z,22.72
2017-04-28T13:09:52.944Z,22.78